EST,Max TemperatureF,Mean TemperatureF,Min TemperatureF,Max Dew PointF,MeanDew PointF,Min DewpointF,Max Humidity, Mean Humidity, Min Humidity, Max Sea Level PressureIn, Mean Sea Level PressureIn, Min Sea Level PressureIn, Max VisibilityMiles, Mean VisibilityMiles, Min VisibilityMiles, Max Wind SpeedMPH, Mean Wind SpeedMPH, Max Gust SpeedMPH,PrecipitationIn, CloudCover, Events, WindDirDegrees
2013-1-1,30,18,5,21,11,1,92,65,50,30.12,30.06,29.99,10,10,10,14,6,21,0.00,4,,299
2013-1-2,24,14,3,19,13,0,92,78,64,30.18,30.12,30.05,10,10,5,10,2,17,0.00,8,Snow,247
2013-1-3,30,26,21,25,19,9,86,74,58,30.14,30.08,30.01,10,9,5,12,5,17,0.00,8,Snow,230
2013-1-4,33,30,26,23,21,19,80,68,56,30.14,30.03,29.94,10,10,10,17,8,24,0.00,2,,235
2013-1-5,32,20,8,30,21,7,100,86,80,30.27,30.15,30.00,10,5,1,16,5,21,0.00,3,Snow,205
2013-1-6,37,34,32,34,31,27,100,88,75,30.24,29.98,29.89,10,6,2,12,7,18,0.00,8,Rain-Snow,239
2013-1-7,37,32,28,27,25,23,86,76,60,30.36,30.25,30.14,10,10,7,22,8,31,0.00,4,,209
2013-1-8,35,28,19,28,25,19,100,81,70,30.24,30.20,30.14,10,7,2,15,8,17,0.00,0,,197
2013-1-9,48,34,19,34,28,18,100,68,40,30.41,30.14,30.01,10,9,2,16,7,29,0.00,1,,236
2013-1-10,39,30,21,32,27,19,100,81,65,30.58,30.47,30.22,10,10,7,9,3,,0.00,1,Rain,139
2013-1-11,48,42,35,48,40,32,100,93,81,30.20,29.92,29.77,10,6,0,14,8,21,0.00,6,Fog-Rain,162
2013-1-12,57,50,44,50,46,43,100,90,77,29.94,29.89,29.84,10,7,0,13,7,18,0.00,1,Fog,194
2013-1-13,50,42,33,48,39,32,100,92,81,29.98,29.85,29.74,10,7,0,14,7,25,0.00,8,Fog-Rain,326
2013-1-14,33,26,19,32,19,16,93,74,59,30.42,30.29,29.98,10,10,10,16,8,25,0.00,5,,285
2013-1-15,30,22,15,23,17,14,93,78,55,30.43,30.33,30.15,10,10,7,7,1,,0.00,0,,211
2013-1-16,39,30,21,28,20,14,93,69,36,30.14,29.91,29.77,10,9,5,15,3,21,0.00,3,,235
2013-1-17,35,26,17,28,19,3,80,67,49,30.28,30.13,29.92,10,10,10,16,7,31,0.00,7,Snow,315
2013-1-18,35,24,12,25,15,5,86,69,56,30.43,30.24,29.94,10,10,2,28,9,37,0.00,3,Snow,213
2013-1-19,46,42,37,34,29,21,70,60,52,29.93,29.79,29.51,10,10,10,17,12,30,0.00,3,,212
2013-1-20,44,30,17,34,11,5,74,55,39,30.15,29.95,29.49,10,10,3,28,13,45,0.00,7,Rain-Snow,274
2013-1-21,21,14,6,12,3,-9,86,62,48,30.12,30.00,29.91,10,9,1,18,6,25,0.00,5,Snow,271
2013-1-22,12,6,1,0,-7,-11,78,57,37,30.24,30.18,30.05,10,10,10,16,8,26,0.00,2,,276
2013-1-23,19,11,3,14,4,-4,93,71,45,30.25,30.15,30.06,10,8,2,12,3,20,0.00,5,Snow,228
2013-1-24,17,8,0,14,5,-4,93,74,49,30.57,30.42,30.10,10,8,0,12,6,17,0.00,2,Snow,320
2013-1-25,21,12,3,18,11,0,93,83,73,30.49,30.19,30.02,10,6,1,7,1,,0.00,7,Snow,147
2013-1-26,28,17,5,19,14,1,93,82,59,30.43,30.24,30.05,10,7,2,12,2,16,0.00,5,Snow,299
2013-1-27,30,16,1,27,13,-4,93,79,60,30.49,30.40,30.19,10,8,1,15,4,21,0.00,5,Snow,161
2013-1-28,44,37,30,43,36,28,100,95,87,30.18,29.95,29.83,10,4,0,15,8,22,0.00,8,Fog-Rain-Snow,198
2013-1-29,55,45,35,54,44,34,100,98,93,30.02,29.79,29.52,10,3,0,16,6,22,0.00,8,Fog-Rain-Snow,167
2013-1-30,60,50,39,55,47,34,100,94,77,29.49,29.24,29.08,10,6,0,23,11,33,0.00,8,Fog-Rain,192
2013-1-31,37,28,19,32,16,10,81,69,54,29.82,29.56,29.16,10,9,1,24,13,36,0.00,8,Snow,268